Terminal Aerodrome Forecast
Issued by NWS

Home | Current Version | Previous Version | Text Only | Print | Product List | Glossary On
Versions: 1 2 3 4 5 6 7 8 9 10 11 12 13 14
000
FTUS45 KRIW 181100
TAFWRL
TAF
KWRL 181120Z 1812/1912 16005KT P6SM VCFG FEW003
     FM181600 VRB04KT P6SM SKC
     FM190300 VRB04KT P6SM BKN100
     FM191000 VRB04KT P6SM SCT100=

USA.gov is the U.S. government's official web portal to all federal, state and local government web resources and services.